createdAt,value
2022-11-14T03:59:15.295Z,0.00
2022-11-14T04:00:15.278Z,0.00
2022-11-14T04:01:15.801Z,0.00
2022-11-14T04:02:16.529Z,0.00
2022-11-14T04:03:15.764Z,0.00
2022-11-14T04:04:15.957Z,0.00
2022-11-14T04:05:15.269Z,0.00
2022-11-14T04:06:16.873Z,0.00
2022-11-14T04:07:16.715Z,0.00
2022-11-14T04:08:16.523Z,0.00
2022-11-14T04:09:15.724Z,0.00
2022-11-14T04:10:15.826Z,0.00
2022-11-14T04:11:17.592Z,0.00
2022-11-14T04:12:16.224Z,0.00
2022-11-14T04:13:17.335Z,0.00
2022-11-14T04:14:16.353Z,0.00
2022-11-14T04:15:17.465Z,0.00
2022-11-14T04:16:18.214Z,0.00
2022-11-14T04:17:19.159Z,0.00
2022-11-14T04:18:17.994Z,0.00
2022-11-14T04:19:17.026Z,0.00
2022-11-14T04:20:18.730Z,0.00
2022-11-14T04:21:17.273Z,0.00
2022-11-14T04:22:17.383Z,0.00
2022-11-14T04:23:17.494Z,0.00
2022-11-14T04:24:17.601Z,0.00
2022-11-14T04:25:19.385Z,0.00
2022-11-14T04:26:17.811Z,0.00
2022-11-14T04:27:17.950Z,0.00
2022-11-14T04:28:18.092Z,0.00
2022-11-14T04:29:19.350Z,0.00
2022-11-14T04:30:18.360Z,0.00
2022-11-14T04:31:18.504Z,0.00
2022-11-14T04:32:18.610Z,0.00
2022-11-14T04:33:18.745Z,0.00
2022-11-14T04:34:20.029Z,0.00
2022-11-14T04:35:18.972Z,0.00
2022-11-14T04:36:20.762Z,0.00
2022-11-14T04:37:20.199Z,0.00
2022-11-14T04:38:21.019Z,0.00
2022-11-14T04:39:21.248Z,0.00
2022-11-14T04:40:20.640Z,0.00
2022-11-14T04:41:21.430Z,0.00
2022-11-14T04:42:20.731Z,0.00
2022-11-14T04:43:21.021Z,0.00
2022-11-14T04:44:21.052Z,0.00
2022-11-14T04:45:21.826Z,0.00
2022-11-14T04:46:22.078Z,0.00
2022-11-14T04:47:21.586Z,0.00
2022-11-14T04:48:21.754Z,0.00
2022-11-14T04:49:22.467Z,0.00
2022-11-14T04:50:23.453Z,0.00
2022-11-14T04:51:21.159Z,0.00
2022-11-14T04:52:23.611Z,0.00
2022-11-14T04:53:21.386Z,0.00
2022-11-14T04:54:24.080Z,0.00
2022-11-14T04:55:21.723Z,0.00
2022-11-14T04:56:24.429Z,0.00
2022-11-14T04:57:24.676Z,0.00
2022-11-14T04:58:24.929Z,0.00
2022-11-14T04:59:23.219Z,0.00
2022-11-14T05:00:23.343Z,0.00
2022-11-14T05:01:23.275Z,0.00
2022-11-14T05:02:25.256Z,0.00
2022-11-14T05:03:23.565Z,0.00
2022-11-14T05:04:23.727Z,0.00
2022-11-14T05:05:25.698Z,0.00
2022-11-14T05:06:24.055Z,0.00
2022-11-14T05:07:24.276Z,0.00
2022-11-14T05:08:26.087Z,0.00
2022-11-14T05:09:24.524Z,0.00
2022-11-14T05:10:24.684Z,0.00
2022-11-14T05:11:28.952Z,0.00
2022-11-14T05:12:25.635Z,0.00
2022-11-14T05:13:25.403Z,0.00
2022-11-14T05:14:25.074Z,0.00
2022-11-14T05:15:25.498Z,0.00
2022-11-14T05:16:25.525Z,0.00
2022-11-14T05:17:25.796Z,0.00
2022-11-14T05:18:25.793Z,0.00
2022-11-14T05:19:25.853Z,0.00
2022-11-14T05:20:26.652Z,0.00
2022-11-14T05:21:26.238Z,0.00
2022-11-14T05:22:27.832Z,0.00
2022-11-14T05:23:28.077Z,0.00
2022-11-14T05:24:28.073Z,0.00
2022-11-14T05:25:25.772Z,0.00
2022-11-14T05:26:28.502Z,0.00
2022-11-14T05:27:28.471Z,0.00
2022-11-14T05:28:28.715Z,0.00
2022-11-14T05:29:27.414Z,0.00
2022-11-14T05:30:28.162Z,0.00
2022-11-14T05:31:26.610Z,0.00
2022-11-14T05:32:26.703Z,0.00
2022-11-14T05:33:26.842Z,0.00
2022-11-14T05:34:28.615Z,0.00
2022-11-14T05:35:27.111Z,0.00
2022-11-14T05:36:27.237Z,0.00
2022-11-14T05:37:27.371Z,0.00
2022-11-14T05:38:28.965Z,0.00
2022-11-14T05:39:27.663Z,0.00
2022-11-14T05:40:27.761Z,0.00
2022-11-14T05:41:29.491Z,0.00
2022-11-14T05:42:30.471Z,0.00
2022-11-14T05:43:29.300Z,0.00
2022-11-14T05:44:28.272Z,0.00
2022-11-14T05:45:29.430Z,0.00
2022-11-14T05:46:30.250Z,0.00
2022-11-14T05:47:31.020Z,0.00
2022-11-14T05:48:30.045Z,0.00
2022-11-14T05:49:29.949Z,0.00
2022-11-14T05:50:29.069Z,0.00
2022-11-14T05:51:30.859Z,0.00
2022-11-14T05:52:29.302Z,0.00
2022-11-14T05:53:30.409Z,0.00
2022-11-14T05:54:29.529Z,0.00
2022-11-14T05:55:29.689Z,0.00
2022-11-14T05:56:31.428Z,0.00
2022-11-14T05:57:30.988Z,0.00
2022-11-14T05:58:31.344Z,0.00
2022-11-14T05:59:31.855Z,0.00
2022-11-14T06:00:33.400Z,0.00
2022-11-14T06:01:34.172Z,0.00
2022-11-14T06:02:30.725Z,0.00
2022-11-14T06:03:34.339Z,0.00
2022-11-14T06:04:31.028Z,0.00
2022-11-14T06:05:33.488Z,0.00
2022-11-14T06:06:33.971Z,0.00
2022-11-14T06:07:33.883Z,0.00
2022-11-14T06:08:33.523Z,0.00
2022-11-14T06:09:34.694Z,0.00
2022-11-14T06:10:31.860Z,0.00
2022-11-14T06:11:32.001Z,0.00
2022-11-14T06:12:33.137Z,0.00
2022-11-14T06:13:32.256Z,0.00
2022-11-14T06:14:33.487Z,0.00
2022-11-14T06:15:33.770Z,0.00
2022-11-14T06:16:32.687Z,0.00
2022-11-14T06:17:33.863Z,0.00
2022-11-14T06:18:33.118Z,0.00
2022-11-14T06:19:34.057Z,1.00
2022-11-14T06:20:34.315Z,0.00
2022-11-14T06:21:34.584Z,0.00
2022-11-14T06:22:35.345Z,1.00
2022-11-14T06:23:33.707Z,1.00
2022-11-14T06:24:33.789Z,1.00
2022-11-14T06:25:35.556Z,1.00
2022-11-14T06:26:34.086Z,2.00
2022-11-14T06:27:34.353Z,0.00
2022-11-14T06:28:35.358Z,2.00
2022-11-14T06:29:36.113Z,2.00
2022-11-14T06:30:34.755Z,3.00
2022-11-14T06:31:34.814Z,1.00
2022-11-14T06:32:36.583Z,3.00
2022-11-14T06:33:36.853Z,3.00
2022-11-14T06:34:37.082Z,2.00
2022-11-14T06:35:37.354Z,3.00
2022-11-14T06:36:36.574Z,7.00
2022-11-14T06:37:35.712Z,5.00
2022-11-14T06:38:36.013Z,5.00
2022-11-14T06:39:36.009Z,4.00
2022-11-14T06:40:36.334Z,9.00
2022-11-14T06:41:38.151Z,8.00
2022-11-14T06:42:36.433Z,8.00
2022-11-14T06:43:36.571Z,10.00
2022-11-14T06:44:37.422Z,8.00
2022-11-14T06:45:38.572Z,14.00
2022-11-14T06:46:37.012Z,14.00
2022-11-14T06:47:37.260Z,15.00
2022-11-14T06:48:44.008Z,17.00
2022-11-14T06:49:40.845Z,17.00
2022-11-14T06:50:39.185Z,18.00
2022-11-14T06:51:39.153Z,19.00
2022-11-14T06:52:38.483Z,20.00
2022-11-14T06:53:42.539Z,21.00
2022-11-14T06:54:38.123Z,22.00
2022-11-14T06:55:40.875Z,25.00
2022-11-14T06:57:03.066Z,26.00
2022-11-14T07:00:56.254Z,34.00
2022-11-14T07:01:53.438Z,34.00
2022-11-14T07:02:53.545Z,37.00
2022-11-14T07:04:08.037Z,41.00
2022-11-14T07:04:54.739Z,37.00
2022-11-14T07:05:55.169Z,43.00
2022-11-14T07:06:54.086Z,49.00
2022-11-14T07:07:54.959Z,46.00
2022-11-14T07:08:56.127Z,47.00
2022-11-14T07:09:55.421Z,52.00
2022-11-14T07:10:56.141Z,55.00
2022-11-14T07:11:55.637Z,55.00
2022-11-14T07:12:54.748Z,55.00
2022-11-14T07:13:57.534Z,52.00
2022-11-14T07:14:56.905Z,53.00
2022-11-14T07:15:56.173Z,66.00
2022-11-14T07:16:56.421Z,64.00
2022-11-14T07:17:55.356Z,70.00
2022-11-14T07:18:57.138Z,69.00
2022-11-14T07:19:57.418Z,77.00
2022-11-14T07:20:55.785Z,80.00
2022-11-14T07:21:57.653Z,74.00
2022-11-14T07:22:57.085Z,78.00
2022-11-14T07:23:57.315Z,82.00
2022-11-14T07:24:58.066Z,89.00
2022-11-14T07:25:57.506Z,77.00
2022-11-14T07:26:56.635Z,106.00
2022-11-14T07:27:56.755Z,102.00
2022-11-14T07:29:02.052Z,97.00
2022-11-14T07:29:59.683Z,89.00
2022-11-14T07:30:58.917Z,92.00
2022-11-14T07:31:57.292Z,105.00
2022-11-14T07:32:57.431Z,99.00
2022-11-14T07:33:58.445Z,110.00
2022-11-14T07:35:02.550Z,113.00
2022-11-14T07:35:57.876Z,102.00
2022-11-14T07:36:59.123Z,118.00
2022-11-14T07:37:59.086Z,100.00
2022-11-14T07:38:59.177Z,109.00
2022-11-14T07:39:59.392Z,102.00
2022-11-14T07:41:00.252Z,144.00
2022-11-14T07:41:59.836Z,122.00
2022-11-14T07:42:59.881Z,139.00
2022-11-14T07:43:59.795Z,123.00
2022-11-14T07:44:59.984Z,112.00
2022-11-14T07:46:00.212Z,117.00
2022-11-14T07:47:02.370Z,133.00
2022-11-14T07:47:59.485Z,117.00
2022-11-14T07:48:59.513Z,123.00
2022-11-14T07:50:01.759Z,134.00
2022-11-14T07:51:00.704Z,140.00
2022-11-14T07:52:01.453Z,161.00
2022-11-14T07:52:59.941Z,160.00
2022-11-14T07:54:00.170Z,160.00
2022-11-14T07:55:03.434Z,132.00
2022-11-14T07:56:00.470Z,146.00
2022-11-14T07:57:00.590Z,195.00
2022-11-14T07:58:00.718Z,200.00
2022-11-14T07:59:01.930Z,163.00
2022-11-14T08:00:04.668Z,161.00
2022-11-14T08:01:02.744Z,81.00
2022-11-14T08:02:02.460Z,143.00
2022-11-14T08:03:02.819Z,205.00
2022-11-14T08:04:02.559Z,187.00
2022-11-14T08:05:01.749Z,149.00
2022-11-14T08:06:01.874Z,197.00
2022-11-14T08:07:03.891Z,184.00
2022-11-14T08:08:38.511Z,228.00
2022-11-14T08:12:11.248Z,197.00
2022-11-14T08:12:56.195Z,227.00
2022-11-14T08:13:46.771Z,213.00
2022-11-14T08:14:47.678Z,223.00
2022-11-14T08:15:47.512Z,268.00
2022-11-14T08:16:46.258Z,249.00
2022-11-14T08:17:46.160Z,256.00
2022-11-14T08:18:45.569Z,150.00
2022-11-14T08:19:45.631Z,205.00
2022-11-14T08:20:47.474Z,267.00
2022-11-14T08:21:46.598Z,224.00
2022-11-14T08:22:48.680Z,198.00
2022-11-14T08:23:46.861Z,224.00
2022-11-14T08:24:47.762Z,261.00
2022-11-14T08:25:48.217Z,186.00
2022-11-14T08:26:47.969Z,160.00
2022-11-14T08:27:48.351Z,307.00
2022-11-14T08:28:47.852Z,224.00
2022-11-14T08:29:48.688Z,292.00
2022-11-14T08:30:49.520Z,283.00
2022-11-14T08:31:59.621Z,252.00
2022-11-14T08:33:00.824Z,367.00
2022-11-14T08:33:50.888Z,189.00
2022-11-14T08:34:51.871Z,245.00
2022-11-14T08:35:54.767Z,209.00
2022-11-14T08:36:48.347Z,323.00
2022-11-14T08:37:49.168Z,385.00
2022-11-14T08:38:51.374Z,164.00
2022-11-14T08:39:58.282Z,287.00
2022-11-14T08:40:48.709Z,291.00
2022-11-14T08:41:48.716Z,281.00
2022-11-14T08:42:51.914Z,285.00
2022-11-14T08:43:50.819Z,299.00
2022-11-14T08:44:52.192Z,282.00
2022-11-14T08:45:53.087Z,275.00
2022-11-14T08:46:51.233Z,283.00
2022-11-14T08:47:56.622Z,265.00
2022-11-14T08:48:51.097Z,288.00
2022-11-14T08:49:52.884Z,297.00
2022-11-14T08:50:51.889Z,282.00
2022-11-14T08:51:52.554Z,276.00
2022-11-14T08:53:00.865Z,278.00
2022-11-14T08:53:51.471Z,283.00
2022-11-14T08:54:50.587Z,289.00
2022-11-14T08:55:54.062Z,297.00
2022-11-14T08:56:52.061Z,289.00
2022-11-14T08:57:57.447Z,302.00
2022-11-14T08:58:53.327Z,295.00
2022-11-14T08:59:51.315Z,311.00
2022-11-14T09:00:54.993Z,308.00
2022-11-14T09:01:54.306Z,299.00
2022-11-14T09:02:51.603Z,312.00
2022-11-14T09:03:59.420Z,313.00
2022-11-14T09:04:52.977Z,308.00
2022-11-14T09:05:54.650Z,314.00
2022-11-14T09:06:54.517Z,304.00
2022-11-14T09:07:53.246Z,314.00
2022-11-14T09:08:54.853Z,322.00
2022-11-14T09:09:53.507Z,317.00
2022-11-14T09:10:54.335Z,322.00
2022-11-14T09:11:54.114Z,311.00
2022-11-14T09:12:54.843Z,317.00
2022-11-14T09:13:53.054Z,321.00
2022-11-14T09:14:54.872Z,326.00
2022-11-14T09:15:55.134Z,325.00
2022-11-14T09:16:54.916Z,330.00
2022-11-14T09:17:54.597Z,327.00
2022-11-14T09:18:53.762Z,329.00
2022-11-14T09:19:53.861Z,330.00
2022-11-14T09:20:55.051Z,327.00
2022-11-14T09:21:56.151Z,334.00
2022-11-14T09:22:56.340Z,343.00
2022-11-14T09:24:00.397Z,342.00
2022-11-14T09:24:55.638Z,344.00
2022-11-14T09:26:00.458Z,342.00
2022-11-14T09:26:57.178Z,344.00
2022-11-14T09:27:56.876Z,344.00
2022-11-14T09:28:56.869Z,348.00
2022-11-14T09:29:57.109Z,346.00
2022-11-14T09:30:57.112Z,347.00
2022-11-14T09:31:56.863Z,349.00
2022-11-14T09:33:11.131Z,345.00
2022-11-14T09:33:56.711Z,349.00
2022-11-14T09:34:57.461Z,356.00
2022-11-14T09:35:57.738Z,348.00
2022-11-14T09:36:58.938Z,352.00
2022-11-14T09:37:58.010Z,348.00
2022-11-14T09:38:58.095Z,351.00
2022-11-14T09:39:58.398Z,351.00
2022-11-14T09:40:59.672Z,349.00
2022-11-14T09:41:59.434Z,344.00
2022-11-14T09:42:58.617Z,340.00
2022-11-14T09:44:01.520Z,343.00
2022-11-14T09:44:57.325Z,346.00
2022-11-14T09:45:57.406Z,346.00
2022-11-14T09:46:59.138Z,342.00
2022-11-14T09:47:57.586Z,340.00
2022-11-14T09:48:57.668Z,342.00
2022-11-14T09:49:57.924Z,341.00
2022-11-14T09:50:58.011Z,339.00
2022-11-14T09:52:00.758Z,339.00
2022-11-14T09:53:00.156Z,343.00
2022-11-14T09:54:01.336Z,352.00
2022-11-14T09:55:00.975Z,342.00
2022-11-14T09:56:00.498Z,349.00
2022-11-14T09:57:00.752Z,343.00
2022-11-14T09:58:01.508Z,341.00
2022-11-14T09:59:00.844Z,344.00
2022-11-14T10:00:02.228Z,347.00
2022-11-14T10:01:03.821Z,344.00
2022-11-14T10:02:01.732Z,350.00
2022-11-14T10:13:24.855Z,348.00
2022-11-14T10:14:25.816Z,353.00
2022-11-14T10:15:25.779Z,353.00
2022-11-14T10:16:25.349Z,357.00
2022-11-14T10:17:24.481Z,354.00
2022-11-14T10:18:25.865Z,350.00
2022-11-14T10:19:26.522Z,344.00
2022-11-14T10:20:25.936Z,343.00
2022-11-14T10:21:26.668Z,334.00
2022-11-14T10:22:28.018Z,327.00
2022-11-14T10:23:29.989Z,322.00
2022-11-14T10:24:25.495Z,319.00
2022-11-14T10:25:26.706Z,321.00
2022-11-14T10:26:27.826Z,324.00
2022-11-14T10:27:26.885Z,326.00
2022-11-14T10:28:26.419Z,321.00
2022-11-14T10:29:32.546Z,328.00
2022-11-14T10:30:29.521Z,326.00
2022-11-14T10:31:34.334Z,326.00
2022-11-14T10:32:30.563Z,328.00
2022-11-14T10:33:36.541Z,329.00
2022-11-14T10:35:42.650Z,327.00
2022-11-14T10:36:50.233Z,328.00
2022-11-14T10:37:42.940Z,325.00
2022-11-14T10:38:46.453Z,327.00
2022-11-14T10:39:46.890Z,326.00
2022-11-14T10:40:43.569Z,328.00
2022-11-14T10:42:04.485Z,333.00
2022-11-14T10:42:46.401Z,341.00
2022-11-14T10:43:46.309Z,344.00
2022-11-14T10:44:49.965Z,347.00
2022-11-14T10:45:51.843Z,345.00
2022-11-14T10:46:50.878Z,346.00
2022-11-14T10:48:06.454Z,350.00
2022-11-14T10:48:45.165Z,361.00
2022-11-14T10:49:48.363Z,362.00
2022-11-14T10:50:45.634Z,355.00
2022-11-14T10:51:46.485Z,357.00
2022-11-14T10:52:45.686Z,358.00
2022-11-14T10:53:46.556Z,357.00
2022-11-14T10:54:45.990Z,360.00
2022-11-14T10:56:03.183Z,366.00
2022-11-14T10:56:47.048Z,357.00
2022-11-14T10:57:47.338Z,352.00
2022-11-14T10:58:49.516Z,349.00
2022-11-14T10:59:45.617Z,348.00
2022-11-14T11:00:45.754Z,351.00
2022-11-14T11:01:45.875Z,346.00
2022-11-14T11:02:47.772Z,344.00
2022-11-14T11:03:46.172Z,351.00
2022-11-14T11:04:46.323Z,359.00
2022-11-14T11:05:46.527Z,367.00
2022-11-14T11:06:46.712Z,365.00
2022-11-14T11:07:48.480Z,358.00
2022-11-14T11:08:47.288Z,356.00
2022-11-14T11:09:46.985Z,361.00
2022-11-14T11:10:48.776Z,372.00
2022-11-14T11:11:47.207Z,382.00
2022-11-14T11:12:48.403Z,388.00
2022-11-14T11:13:49.149Z,398.00
2022-11-14T11:14:48.939Z,400.00
2022-11-14T11:15:51.184Z,393.00
2022-11-14T11:16:48.884Z,386.00
2022-11-14T11:17:50.240Z,383.00
2022-11-14T11:18:50.839Z,389.00
2022-11-14T11:19:49.414Z,402.00
2022-11-14T11:20:50.204Z,430.00
2022-11-14T11:21:49.663Z,461.00
2022-11-14T11:22:49.885Z,469.00
2022-11-14T11:23:49.892Z,463.00
2022-11-14T11:24:49.043Z,459.00
2022-11-14T11:25:49.094Z,481.00
2022-11-14T11:26:50.934Z,490.00
2022-11-14T11:27:51.369Z,500.00
2022-11-14T11:28:51.154Z,489.00
2022-11-14T11:29:49.687Z,460.00
2022-11-14T11:30:54.366Z,453.00
2022-11-14T11:31:51.483Z,422.00
2022-11-14T11:32:52.014Z,421.00
2022-11-14T11:33:51.353Z,432.00
2022-11-14T11:34:51.693Z,453.00
2022-11-14T11:35:51.488Z,461.00
2022-11-14T11:36:52.690Z,455.00
2022-11-14T11:37:53.395Z,492.00
2022-11-14T11:38:51.041Z,513.00
2022-11-14T11:39:52.742Z,507.00
2022-11-14T11:40:51.303Z,509.00
2022-11-14T11:43:56.692Z,513.00
2022-11-14T11:44:53.370Z,505.00
2022-11-14T11:45:52.808Z,533.00
2022-11-14T11:46:53.553Z,528.00
2022-11-14T11:47:54.795Z,542.00
2022-11-14T11:48:54.100Z,556.00
2022-11-14T11:49:54.759Z,559.00
2022-11-14T11:50:56.530Z,543.00
2022-11-14T11:51:54.463Z,554.00
2022-11-14T11:52:57.658Z,565.00
2022-11-14T11:53:54.009Z,571.00
2022-11-14T11:54:54.032Z,582.00
2022-11-14T11:55:56.710Z,547.00
2022-11-14T11:56:54.371Z,615.00
2022-11-14T11:57:54.219Z,588.00
2022-11-14T11:58:55.209Z,590.00
2022-11-14T11:59:54.708Z,582.00
2022-11-14T12:00:54.965Z,585.00
2022-11-14T12:01:55.641Z,591.00
2022-11-14T12:03:20.334Z,619.00
2022-11-14T12:03:55.410Z,600.00
2022-11-14T12:04:55.419Z,589.00
2022-11-14T12:05:57.628Z,609.00
2022-11-14T12:06:55.527Z,636.00
2022-11-14T12:07:54.789Z,611.00
2022-11-14T12:08:54.966Z,622.00
2022-11-14T12:10:11.297Z,622.00
2022-11-14T12:10:59.826Z,617.00
2022-11-14T12:11:56.181Z,613.00
2022-11-14T12:12:56.508Z,620.00
2022-11-14T12:13:56.547Z,606.00
2022-11-14T12:14:57.007Z,622.00
2022-11-14T12:17:26.917Z,619.00
2022-11-14T12:18:24.208Z,623.00
2022-11-14T12:19:25.090Z,624.00
2022-11-14T12:20:25.878Z,630.00
2022-11-14T12:21:27.697Z,626.00
2022-11-14T12:22:26.901Z,609.00
2022-11-14T12:23:26.748Z,595.00
2022-11-14T12:24:31.182Z,615.00
2022-11-14T12:25:27.052Z,644.00
2022-11-14T12:26:26.139Z,634.00
2022-11-14T12:27:29.348Z,608.00
2022-11-14T12:28:26.064Z,615.00
2022-11-14T12:29:25.810Z,598.00
2022-11-14T12:30:27.752Z,586.00
2022-11-14T12:31:30.126Z,605.00
2022-11-14T12:32:29.635Z,598.00
2022-11-14T12:33:27.089Z,581.00
2022-11-14T12:34:31.421Z,581.00
2022-11-14T12:35:33.896Z,581.00
2022-11-14T12:36:30.007Z,587.00
2022-11-14T12:37:33.428Z,600.00
2022-11-14T12:38:26.818Z,577.00
2022-11-14T12:39:28.473Z,572.00
2022-11-14T12:40:33.169Z,560.00
2022-11-14T12:41:29.006Z,544.00
2022-11-14T12:42:28.151Z,534.00
2022-11-14T12:43:36.980Z,523.00
2022-11-14T12:44:28.534Z,527.00
2022-11-14T12:45:27.903Z,524.00
2022-11-14T12:46:29.617Z,515.00
2022-11-14T12:47:29.940Z,509.00
2022-11-14T12:48:35.353Z,508.00
2022-11-14T12:49:32.798Z,505.00
2022-11-14T12:50:29.713Z,507.00
2022-11-14T12:51:28.700Z,499.00
2022-11-14T12:52:29.910Z,495.00
2022-11-14T12:53:29.917Z,481.00
2022-11-14T12:54:29.811Z,486.00
2022-11-14T12:55:29.235Z,479.00
2022-11-14T12:56:29.940Z,477.00
2022-11-14T12:57:30.700Z,475.00
2022-11-14T12:58:29.619Z,469.00
2022-11-14T12:59:30.677Z,469.00
2022-11-14T13:00:30.728Z,475.00
2022-11-14T13:01:31.957Z,472.00
2022-11-14T13:02:31.699Z,466.00
2022-11-14T13:03:31.421Z,464.00
2022-11-14T13:04:32.778Z,470.00
2022-11-14T13:05:31.618Z,467.00
2022-11-14T13:06:32.407Z,458.00
2022-11-14T13:07:34.583Z,459.00
2022-11-14T13:08:31.675Z,455.00
2022-11-14T13:09:32.592Z,451.00
2022-11-14T13:10:33.855Z,451.00
2022-11-14T13:11:31.408Z,451.00
2022-11-14T13:12:33.080Z,445.00
2022-11-14T13:13:35.757Z,444.00
2022-11-14T13:14:33.616Z,436.00
2022-11-14T13:15:31.788Z,434.00
2022-11-14T13:16:32.856Z,428.00
2022-11-14T13:17:32.098Z,434.00
2022-11-14T13:18:33.917Z,426.00
2022-11-14T13:19:33.241Z,424.00
2022-11-14T13:20:32.469Z,426.00
2022-11-14T13:21:32.572Z,417.00
2022-11-14T13:22:32.741Z,418.00
2022-11-14T13:23:33.360Z,414.00
2022-11-14T13:24:39.115Z,416.00
2022-11-14T13:25:33.114Z,418.00
2022-11-14T13:26:34.335Z,418.00
2022-11-14T13:28:05.294Z,415.00
2022-11-14T13:28:34.516Z,414.00
2022-11-14T13:29:36.297Z,400.00
2022-11-14T13:30:35.568Z,391.00
2022-11-14T13:31:35.848Z,379.00
2022-11-14T13:32:35.585Z,373.00
2022-11-14T13:33:35.855Z,374.00
2022-11-14T13:34:36.134Z,378.00
2022-11-14T13:35:36.354Z,371.00
2022-11-14T13:36:37.149Z,372.00
2022-11-14T13:37:34.906Z,371.00
2022-11-14T13:38:35.564Z,371.00
2022-11-14T13:39:34.934Z,365.00
2022-11-14T13:40:36.663Z,371.00
2022-11-14T13:41:46.922Z,371.00
2022-11-14T13:42:36.263Z,367.00
2022-11-14T13:43:35.491Z,363.00
2022-11-14T13:44:38.085Z,363.00
2022-11-14T13:45:38.370Z,358.00
2022-11-14T13:46:37.664Z,355.00
2022-11-14T13:47:38.030Z,351.00
2022-11-14T13:48:37.023Z,348.00
2022-11-14T13:49:37.366Z,352.00
2022-11-14T13:50:38.602Z,342.00
2022-11-14T13:51:43.204Z,341.00
2022-11-14T13:52:38.704Z,330.00
2022-11-14T13:53:39.920Z,325.00
2022-11-14T13:54:36.859Z,323.00
2022-11-14T13:55:37.602Z,320.00
2022-11-14T13:56:38.373Z,320.00
2022-11-14T13:57:37.214Z,314.00
2022-11-14T13:58:37.391Z,312.00
2022-11-14T13:59:37.526Z,314.00
2022-11-14T14:00:37.692Z,307.00
2022-11-14T14:01:39.540Z,306.00
2022-11-14T14:02:38.643Z,306.00
2022-11-14T14:03:39.763Z,302.00
2022-11-14T14:04:38.209Z,298.00
2022-11-14T14:05:38.348Z,294.00
2022-11-14T14:06:40.181Z,293.00
2022-11-14T14:07:38.590Z,290.00
2022-11-14T14:08:38.777Z,286.00
2022-11-14T14:09:40.843Z,280.00
2022-11-14T14:10:39.050Z,278.00
2022-11-14T14:11:42.989Z,273.00
2022-11-14T14:12:40.939Z,267.00
2022-11-14T14:13:40.273Z,263.00
2022-11-14T14:14:41.587Z,258.00
2022-11-14T14:15:40.720Z,251.00
2022-11-14T14:16:39.872Z,246.00
2022-11-14T14:17:40.019Z,239.00
2022-11-14T14:18:41.325Z,238.00
2022-11-14T14:19:40.281Z,239.00
2022-11-14T14:20:40.472Z,234.00
2022-11-14T14:21:40.619Z,223.00
2022-11-14T14:22:40.698Z,212.00
2022-11-14T14:23:40.880Z,201.00
2022-11-14T14:24:41.970Z,195.00
2022-11-14T14:25:41.179Z,191.00
2022-11-14T14:26:43.431Z,188.00
2022-11-14T14:27:41.388Z,188.00
2022-11-14T14:28:42.685Z,184.00
2022-11-14T14:29:43.442Z,183.00
2022-11-14T14:30:43.741Z,179.00
2022-11-14T14:31:43.627Z,173.00
2022-11-14T14:32:44.528Z,172.00
2022-11-14T14:33:43.357Z,165.00
2022-11-14T14:34:43.359Z,165.00
2022-11-14T14:35:43.539Z,162.00
2022-11-14T14:36:43.638Z,160.00
2022-11-14T14:37:44.406Z,161.00
2022-11-14T14:38:43.858Z,163.00
2022-11-14T14:39:44.697Z,162.00
2022-11-14T14:40:44.140Z,158.00
2022-11-14T14:41:43.387Z,152.00
2022-11-14T14:42:44.387Z,149.00
2022-11-14T14:43:45.217Z,144.00
2022-11-14T14:44:44.966Z,139.00
2022-11-14T14:45:45.751Z,135.00
2022-11-14T14:46:45.516Z,132.00
2022-11-14T14:47:45.795Z,127.00
2022-11-14T14:48:46.028Z,126.00
2022-11-14T14:49:46.280Z,124.00
2022-11-14T14:50:46.045Z,122.00
2022-11-14T14:51:46.578Z,120.00
2022-11-14T14:52:46.601Z,119.00
2022-11-14T14:53:46.894Z,114.00
2022-11-14T14:54:46.671Z,113.00
2022-11-14T14:55:47.935Z,110.00
2022-11-14T14:56:47.212Z,107.00
2022-11-14T14:57:46.954Z,105.00
2022-11-14T14:58:47.247Z,100.00
2022-11-14T14:59:46.734Z,98.00
2022-11-14T15:00:47.566Z,94.00
2022-11-14T15:01:47.887Z,91.00
2022-11-14T15:02:48.054Z,88.00
2022-11-14T15:03:47.832Z,85.00
2022-11-14T15:04:48.128Z,84.00
2022-11-14T15:05:48.383Z,82.00
2022-11-14T15:06:48.735Z,80.00
2022-11-14T15:07:47.753Z,75.00
2022-11-14T15:08:48.693Z,73.00
2022-11-14T15:09:48.987Z,72.00
2022-11-14T15:10:49.252Z,68.00
2022-11-14T15:11:48.153Z,66.00
2022-11-14T15:12:49.284Z,64.00
2022-11-14T15:13:48.462Z,63.00
2022-11-14T15:14:49.499Z,60.00
2022-11-14T15:15:49.782Z,58.00
2022-11-14T15:16:50.108Z,55.00
2022-11-14T15:17:49.243Z,53.00
2022-11-14T15:18:49.485Z,50.00
2022-11-14T15:19:48.542Z,47.00
2022-11-14T15:20:48.643Z,45.00
2022-11-14T15:21:49.821Z,43.00
2022-11-14T15:22:49.954Z,41.00
2022-11-14T15:23:51.213Z,38.00
2022-11-14T15:24:49.160Z,37.00
2022-11-14T15:25:50.391Z,35.00
2022-11-14T15:26:49.380Z,34.00
2022-11-14T15:27:50.649Z,32.00
2022-11-14T15:28:50.933Z,30.00
2022-11-14T15:29:49.811Z,30.00
2022-11-14T15:30:49.920Z,26.00
2022-11-14T15:31:51.110Z,25.00
2022-11-14T15:32:51.201Z,23.00
2022-11-14T15:33:51.530Z,22.00
2022-11-14T15:34:51.540Z,21.00
2022-11-14T15:35:51.640Z,18.00
2022-11-14T15:36:51.750Z,18.00
2022-11-14T15:37:52.021Z,17.00
2022-11-14T15:38:52.761Z,15.00
2022-11-14T15:39:52.112Z,14.00
2022-11-14T15:40:52.282Z,10.00
2022-11-14T15:41:53.122Z,13.00
2022-11-14T15:42:51.639Z,8.00
2022-11-14T15:43:52.496Z,8.00
2022-11-14T15:44:52.678Z,9.00
2022-11-14T15:45:52.038Z,6.00
2022-11-14T15:46:53.912Z,7.00
2022-11-14T15:47:53.137Z,5.00
2022-11-14T15:48:53.336Z,7.00
2022-11-14T15:49:53.622Z,4.00
2022-11-14T15:50:55.263Z,3.00
2022-11-14T15:51:54.736Z,3.00
2022-11-14T15:52:53.962Z,1.00
2022-11-14T15:53:54.227Z,3.00
2022-11-14T15:54:54.257Z,2.00
2022-11-14T15:55:54.176Z,2.00
2022-11-14T15:56:55.227Z,0.00
2022-11-14T15:58:13.692Z,2.00
2022-11-14T15:58:55.128Z,1.00
2022-11-14T15:59:54.797Z,1.00
2022-11-14T16:00:55.115Z,1.00
2022-11-14T16:12:33.028Z,0.00
2022-11-14T16:13:33.616Z,0.00
2022-11-14T16:14:33.318Z,0.00
2022-11-14T16:15:33.590Z,0.00
2022-11-14T16:16:33.874Z,0.00
2022-11-14T16:17:33.689Z,0.00
2022-11-14T16:18:32.828Z,0.00
2022-11-14T16:19:34.588Z,0.00
2022-11-14T16:20:36.073Z,0.00
2022-11-14T16:21:34.267Z,0.00
2022-11-14T16:22:34.367Z,0.00
2022-11-14T16:23:35.158Z,0.00
2022-11-14T16:24:34.651Z,0.00
2022-11-14T16:25:34.833Z,0.00
2022-11-14T16:26:35.076Z,0.00
2022-11-14T16:27:35.822Z,0.00
2022-11-14T16:28:35.230Z,0.00
2022-11-14T16:29:35.361Z,0.00
2022-11-14T16:30:36.115Z,0.00
2022-11-14T16:31:36.016Z,0.00
2022-11-14T16:32:35.786Z,0.00
2022-11-14T16:33:36.629Z,0.00
2022-11-14T16:34:36.336Z,0.00
2022-11-14T16:35:36.218Z,0.00
2022-11-14T16:36:36.478Z,0.00
2022-11-14T16:37:37.249Z,0.00
2022-11-14T16:38:36.645Z,0.00
2022-11-14T16:39:36.766Z,0.00
2022-11-14T16:40:37.535Z,0.00
2022-11-14T16:41:37.335Z,0.00
2022-11-14T16:42:37.574Z,0.00
2022-11-14T16:43:37.288Z,0.00
2022-11-14T16:44:41.098Z,0.00
2022-11-14T16:45:39.266Z,0.00
2022-11-14T16:46:36.727Z,0.00
2022-11-14T16:47:37.654Z,0.00
2022-11-14T16:48:37.004Z,0.00
2022-11-14T16:49:38.766Z,0.00
2022-11-14T16:50:38.995Z,0.00
2022-11-14T16:51:48.161Z,0.00
2022-11-14T16:52:38.503Z,0.00
2022-11-14T16:53:39.284Z,0.00
2022-11-14T16:54:37.795Z,0.00
2022-11-14T16:55:39.545Z,0.00
2022-11-14T16:56:39.783Z,0.00
2022-11-14T16:57:38.183Z,0.00
2022-11-14T16:58:39.947Z,0.00
2022-11-14T16:59:40.259Z,0.00
2022-11-14T17:00:38.578Z,0.00
2022-11-14T17:01:40.398Z,0.00
2022-11-14T17:02:40.592Z,0.00
2022-11-14T17:03:40.883Z,0.00
2022-11-14T17:04:39.108Z,0.00
2022-11-14T17:05:40.841Z,0.00
2022-11-14T17:06:41.097Z,0.00
2022-11-14T17:07:41.412Z,0.00
2022-11-14T17:08:41.123Z,0.00
2022-11-14T17:09:39.803Z,0.00
2022-11-14T17:10:39.971Z,0.00
2022-11-14T17:11:41.250Z,0.00
2022-11-14T17:12:40.270Z,0.00
2022-11-14T17:13:41.561Z,0.00
2022-11-14T17:14:40.612Z,0.00
2022-11-14T17:15:40.750Z,0.00
2022-11-14T17:16:40.875Z,0.00
2022-11-14T17:17:41.012Z,0.00
2022-11-14T17:18:42.383Z,0.00